sensor_id;sensor_type;location;lat;lon;timestamp;P1;durP1;ratioP1;P2;durP2;ratioP2
23163;SDS011;31429;42.674;23.350;2022-07-29T03:00:28;20.97;;;18.83;;
23163;SDS011;31429;42.674;23.350;2022-07-29T03:01:30;21.00;;;19.00;;
23163;SDS011;31429;42.674;23.350;2022-07-29T03:02:33;21.10;;;19.00;;
23163;SDS011;31429;42.674;23.350;2022-07-29T03:03:37;22.77;;;20.57;;
23163;SDS011;31429;42.674;23.350;2022-07-29T03:04:39;23.23;;;20.57;;
23163;SDS011;31429;42.674;23.350;2022-07-29T03:05:42;20.00;;;18.10;;
23163;SDS011;31429;42.674;23.350;2022-07-29T03:06:42;20.17;;;18.10;;
23163;SDS011;31429;42.674;23.350;2022-07-29T03:07:45;18.60;;;16.67;;
23163;SDS011;31429;42.674;23.350;2022-07-29T03:08:49;31.63;;;28.43;;
23163;SDS011;31429;42.674;23.350;2022-07-29T03:09:51;30.87;;;27.63;;
23163;SDS011;31429;42.674;23.350;2022-07-29T03:10:53;40.37;;;34.70;;
23163;SDS011;31429;42.674;23.350;2022-07-29T03:11:55;24.83;;;22.07;;
23163;SDS011;31429;42.674;23.350;2022-07-29T03:12:57;55.30;;;49.20;;
23163;SDS011;31429;42.674;23.350;2022-07-29T03:14:00;32.73;;;25.87;;
23163;SDS011;31429;42.674;23.350;2022-07-29T03:15:01;24.87;;;20.80;;
23163;SDS011;31429;42.674;23.350;2022-07-29T03:16:04;136.90;;;112.20;;
23163;SDS011;31429;42.674;23.350;2022-07-29T03:17:06;135.50;;;112.23;;
23163;SDS011;31429;42.674;23.350;2022-07-29T03:18:09;125.00;;;104.73;;
23163;SDS011;31429;42.674;23.350;2022-07-29T03:19:10;73.57;;;62.47;;
23163;SDS011;31429;42.674;23.350;2022-07-29T03:20:11;39.80;;;32.43;;
23163;SDS011;31429;42.674;23.350;2022-07-29T03:21:12;63.37;;;54.40;;
23163;SDS011;31429;42.674;23.350;2022-07-29T03:22:13;41.67;;;31.77;;
23163;SDS011;31429;42.674;23.350;2022-07-29T03:23:18;31.80;;;26.83;;
23163;SDS011;31429;42.674;23.350;2022-07-29T03:24:29;93.10;;;78.77;;
23163;SDS011;31429;42.674;23.350;2022-07-29T03:25:32;113.97;;;88.93;;
23163;SDS011;31429;42.674;23.350;2022-07-29T03:26:33;84.60;;;67.77;;
23163;SDS011;31429;42.674;23.350;2022-07-29T03:27:34;69.47;;;57.80;;
23163;SDS011;31429;42.674;23.350;2022-07-29T03:28:35;173.80;;;143.70;;
23163;SDS011;31429;42.674;23.350;2022-07-29T03:29:35;28.13;;;21.73;;
23163;SDS011;31429;42.674;23.350;2022-07-29T03:30:36;33.17;;;27.90;;
23163;SDS011;31429;42.674;23.350;2022-07-29T03:31:38;27.87;;;24.33;;
23163;SDS011;31429;42.674;23.350;2022-07-29T03:32:39;31.53;;;26.23;;
23163;SDS011;31429;42.674;23.350;2022-07-29T03:33:41;26.27;;;23.43;;
23163;SDS011;31429;42.674;23.350;2022-07-29T03:34:42;19.77;;;17.77;;
23163;SDS011;31429;42.674;23.350;2022-07-29T03:35:43;21.47;;;18.97;;
23163;SDS011;31429;42.674;23.350;2022-07-29T03:36:43;17.87;;;16.17;;
23163;SDS011;31429;42.674;23.350;2022-07-29T03:37:44;19.60;;;17.67;;
23163;SDS011;31429;42.674;23.350;2022-07-29T03:38:45;19.50;;;17.43;;
23163;SDS011;31429;42.674;23.350;2022-07-29T03:40:09;20.37;;;18.00;;
23163;SDS011;31429;42.674;23.350;2022-07-29T03:41:30;21.33;;;19.13;;
23163;SDS011;31429;42.674;23.350;2022-07-29T03:42:53;20.17;;;18.17;;
23163;SDS011;31429;42.674;23.350;2022-07-29T03:43:55;20.50;;;18.33;;
23163;SDS011;31429;42.674;23.350;2022-07-29T03:44:58;19.73;;;17.73;;
23163;SDS011;31429;42.674;23.350;2022-07-29T03:46:03;17.33;;;15.17;;
23163;SDS011;31429;42.674;23.350;2022-07-29T03:47:08;17.60;;;15.70;;
23163;SDS011;31429;42.674;23.350;2022-07-29T03:48:12;22.20;;;16.90;;
23163;SDS011;31429;42.674;23.350;2022-07-29T03:49:16;18.63;;;16.63;;
23163;SDS011;31429;42.674;23.350;2022-07-29T03:50:18;19.93;;;17.07;;
23163;SDS011;31429;42.674;23.350;2022-07-29T03:51:21;21.67;;;19.53;;
23163;SDS011;31429;42.674;23.350;2022-07-29T03:52:22;21.63;;;19.33;;
23163;SDS011;31429;42.674;23.350;2022-07-29T03:53:23;20.13;;;18.07;;
23163;SDS011;31429;42.674;23.350;2022-07-29T03:54:24;20.03;;;17.97;;
23163;SDS011;31429;42.674;23.350;2022-07-29T03:55:24;22.40;;;18.20;;
23163;SDS011;31429;42.674;23.350;2022-07-29T03:56:26;22.27;;;20.03;;
23163;SDS011;31429;42.674;23.350;2022-07-29T03:57:28;26.87;;;23.53;;
23163;SDS011;31429;42.674;23.350;2022-07-29T03:58:31;24.97;;;22.30;;
23163;SDS011;31429;42.674;23.350;2022-07-29T03:59:32;20.80;;;18.60;;
23163;SDS011;31429;42.674;23.350;2022-07-29T04:00:34;22.33;;;20.00;;
23163;SDS011;31429;42.674;23.350;2022-07-29T04:01:36;24.63;;;21.97;;
23163;SDS011;31429;42.674;23.350;2022-07-29T04:02:40;24.47;;;21.97;;
23163;SDS011;31429;42.674;23.350;2022-07-29T04:03:45;24.60;;;22.03;;
23163;SDS011;31429;42.674;23.350;2022-07-29T04:04:46;22.77;;;20.27;;
23163;SDS011;31429;42.674;23.350;2022-07-29T04:05:56;23.70;;;18.93;;
23163;SDS011;31429;42.674;23.350;2022-07-29T04:06:58;22.37;;;20.07;;
23163;SDS011;31429;42.674;23.350;2022-07-29T04:07:58;22.67;;;19.77;;
23163;SDS011;31429;42.674;23.350;2022-07-29T04:08:59;22.63;;;19.20;;
23163;SDS011;31429;42.674;23.350;2022-07-29T04:10:00;20.63;;;18.30;;
23163;SDS011;31429;42.674;23.350;2022-07-29T04:11:00;22.40;;;18.50;;
23163;SDS011;31429;42.674;23.350;2022-07-29T04:12:02;20.63;;;18.47;;
23163;SDS011;31429;42.674;23.350;2022-07-29T04:13:03;21.53;;;19.33;;
23163;SDS011;31429;42.674;23.350;2022-07-29T04:14:04;23.27;;;19.53;;
23163;SDS011;31429;42.674;23.350;2022-07-29T04:15:05;23.43;;;19.60;;
23163;SDS011;31429;42.674;23.350;2022-07-29T04:16:06;21.90;;;19.70;;
23163;SDS011;31429;42.674;23.350;2022-07-29T04:17:07;20.33;;;18.17;;
23163;SDS011;31429;42.674;23.350;2022-07-29T04:18:09;21.07;;;17.23;;
23163;SDS011;31429;42.674;23.350;2022-07-29T04:19:10;19.67;;;17.37;;
23163;SDS011;31429;42.674;23.350;2022-07-29T04:20:11;20.47;;;18.37;;
23163;SDS011;31429;42.674;23.350;2022-07-29T04:21:14;23.23;;;18.53;;
23163;SDS011;31429;42.674;23.350;2022-07-29T04:22:15;19.17;;;16.73;;
23163;SDS011;31429;42.674;23.350;2022-07-29T04:23:16;22.80;;;17.23;;
23163;SDS011;31429;42.674;23.350;2022-07-29T04:24:16;20.40;;;17.87;;
23163;SDS011;31429;42.674;23.350;2022-07-29T04:25:17;19.23;;;16.57;;
23163;SDS011;31429;42.674;23.350;2022-07-29T04:26:18;19.20;;;16.97;;
23163;SDS011;31429;42.674;23.350;2022-07-29T04:27:20;17.67;;;15.77;;
23163;SDS011;31429;42.674;23.350;2022-07-29T04:28:20;18.50;;;16.57;;
23163;SDS011;31429;42.674;23.350;2022-07-29T04:29:21;18.17;;;16.47;;
23163;SDS011;31429;42.674;23.350;2022-07-29T04:30:22;19.63;;;17.60;;
23163;SDS011;31429;42.674;23.350;2022-07-29T04:31:22;16.73;;;15.13;;
23163;SDS011;31429;42.674;23.350;2022-07-29T04:32:23;17.83;;;15.23;;
23163;SDS011;31429;42.674;23.350;2022-07-29T04:33:25;18.53;;;16.63;;
23163;SDS011;31429;42.674;23.350;2022-07-29T04:34:26;16.30;;;14.63;;
23163;SDS011;31429;42.674;23.350;2022-07-29T04:35:27;17.33;;;15.73;;
23163;SDS011;31429;42.674;23.350;2022-07-29T04:36:27;17.50;;;15.80;;
23163;SDS011;31429;42.674;23.350;2022-07-29T04:37:28;17.13;;;15.17;;
23163;SDS011;31429;42.674;23.350;2022-07-29T04:38:29;17.07;;;14.77;;
23163;SDS011;31429;42.674;23.350;2022-07-29T04:39:29;17.57;;;15.50;;
23163;SDS011;31429;42.674;23.350;2022-07-29T04:40:30;18.00;;;14.40;;
23163;SDS011;31429;42.674;23.350;2022-07-29T04:41:33;18.30;;;15.43;;
23163;SDS011;31429;42.674;23.350;2022-07-29T04:42:33;17.27;;;15.47;;
23163;SDS011;31429;42.674;23.350;2022-07-29T04:43:34;17.23;;;15.63;;
23163;SDS011;31429;42.674;23.350;2022-07-29T04:44:36;18.03;;;16.07;;
23163;SDS011;31429;42.674;23.350;2022-07-29T04:45:36;18.37;;;16.27;;
23163;SDS011;31429;42.674;23.350;2022-07-29T04:46:37;17.23;;;15.40;;
23163;SDS011;31429;42.674;23.350;2022-07-29T04:47:38;16.53;;;14.70;;
23163;SDS011;31429;42.674;23.350;2022-07-29T04:48:40;18.47;;;16.63;;
23163;SDS011;31429;42.674;23.350;2022-07-29T04:49:41;23.87;;;16.53;;
23163;SDS011;31429;42.674;23.350;2022-07-29T04:50:41;17.80;;;15.90;;
23163;SDS011;31429;42.674;23.350;2022-07-29T04:51:42;17.27;;;15.57;;
23163;SDS011;31429;42.674;23.350;2022-07-29T04:52:43;17.63;;;15.47;;
23163;SDS011;31429;42.674;23.350;2022-07-29T04:53:43;20.37;;;13.90;;
23163;SDS011;31429;42.674;23.350;2022-07-29T04:54:44;20.57;;;15.00;;
23163;SDS011;31429;42.674;23.350;2022-07-29T04:55:44;20.57;;;15.60;;
23163;SDS011;31429;42.674;23.350;2022-07-29T04:56:45;15.83;;;13.50;;
23163;SDS011;31429;42.674;23.350;2022-07-29T04:57:46;14.70;;;13.07;;
23163;SDS011;31429;42.674;23.350;2022-07-29T04:58:47;15.57;;;13.10;;
23163;SDS011;31429;42.674;23.350;2022-07-29T04:59:47;15.17;;;13.57;;
23163;SDS011;31429;42.674;23.350;2022-07-29T05:00:49;15.80;;;13.07;;
23163;SDS011;31429;42.674;23.350;2022-07-29T05:01:50;14.50;;;12.93;;
23163;SDS011;31429;42.674;23.350;2022-07-29T05:02:50;15.23;;;13.60;;
23163;SDS011;31429;42.674;23.350;2022-07-29T05:03:52;18.20;;;13.40;;
23163;SDS011;31429;42.674;23.350;2022-07-29T05:04:53;13.17;;;11.70;;
23163;SDS011;31429;42.674;23.350;2022-07-29T05:05:54;14.77;;;12.43;;
23163;SDS011;31429;42.674;23.350;2022-07-29T05:06:54;16.80;;;14.50;;
23163;SDS011;31429;42.674;23.350;2022-07-29T05:07:55;16.57;;;13.53;;
23163;SDS011;31429;42.674;23.350;2022-07-29T05:08:56;16.33;;;12.37;;
23163;SDS011;31429;42.674;23.350;2022-07-29T05:09:57;15.57;;;12.63;;
23163;SDS011;31429;42.674;23.350;2022-07-29T05:10:58;13.53;;;11.90;;
23163;SDS011;31429;42.674;23.350;2022-07-29T05:11:58;14.63;;;12.00;;
23163;SDS011;31429;42.674;23.350;2022-07-29T05:12:59;16.40;;;12.90;;
23163;SDS011;31429;42.674;23.350;2022-07-29T05:14:00;18.20;;;12.50;;
23163;SDS011;31429;42.674;23.350;2022-07-29T05:15:00;16.63;;;13.50;;
23163;SDS011;31429;42.674;23.350;2022-07-29T05:16:01;19.30;;;13.23;;
23163;SDS011;31429;42.674;23.350;2022-07-29T05:17:02;14.23;;;12.70;;
23163;SDS011;31429;42.674;23.350;2022-07-29T05:18:03;16.57;;;13.60;;
23163;SDS011;31429;42.674;23.350;2022-07-29T05:19:05;13.27;;;10.90;;
23163;SDS011;31429;42.674;23.350;2022-07-29T05:20:06;13.20;;;11.10;;
23163;SDS011;31429;42.674;23.350;2022-07-29T05:21:07;13.57;;;10.47;;
23163;SDS011;31429;42.674;23.350;2022-07-29T05:22:08;11.97;;;10.77;;
23163;SDS011;31429;42.674;23.350;2022-07-29T05:23:08;16.30;;;10.37;;
23163;SDS011;31429;42.674;23.350;2022-07-29T05:24:12;12.00;;;10.80;;
23163;SDS011;31429;42.674;23.350;2022-07-29T05:25:13;13.10;;;11.37;;
23163;SDS011;31429;42.674;23.350;2022-07-29T05:26:14;18.30;;;14.07;;
23163;SDS011;31429;42.674;23.350;2022-07-29T05:27:14;16.10;;;13.10;;
23163;SDS011;31429;42.674;23.350;2022-07-29T05:28:15;13.57;;;11.63;;
23163;SDS011;31429;42.674;23.350;2022-07-29T05:29:16;12.90;;;11.27;;
23163;SDS011;31429;42.674;23.350;2022-07-29T05:30:17;14.07;;;11.03;;
23163;SDS011;31429;42.674;23.350;2022-07-29T05:31:18;12.07;;;10.83;;
23163;SDS011;31429;42.674;23.350;2022-07-29T05:32:18;11.90;;;10.27;;
23163;SDS011;31429;42.674;23.350;2022-07-29T05:33:19;12.00;;;9.97;;
23163;SDS011;31429;42.674;23.350;2022-07-29T05:34:22;10.57;;;9.37;;
23163;SDS011;31429;42.674;23.350;2022-07-29T05:35:22;11.10;;;9.97;;
23163;SDS011;31429;42.674;23.350;2022-07-29T05:36:23;10.43;;;9.23;;
23163;SDS011;31429;42.674;23.350;2022-07-29T05:37:24;15.77;;;10.33;;
23163;SDS011;31429;42.674;23.350;2022-07-29T05:38:24;12.37;;;8.70;;
23163;SDS011;31429;42.674;23.350;2022-07-29T05:39:25;13.40;;;10.03;;
23163;SDS011;31429;42.674;23.350;2022-07-29T05:40:26;13.03;;;10.50;;
23163;SDS011;31429;42.674;23.350;2022-07-29T05:41:26;13.80;;;10.13;;
23163;SDS011;31429;42.674;23.350;2022-07-29T05:42:27;14.93;;;10.40;;
23163;SDS011;31429;42.674;23.350;2022-07-29T05:43:29;11.20;;;10.00;;
23163;SDS011;31429;42.674;23.350;2022-07-29T05:44:30;13.53;;;10.67;;
23163;SDS011;31429;42.674;23.350;2022-07-29T05:45:30;12.57;;;11.23;;
23163;SDS011;31429;42.674;23.350;2022-07-29T05:46:31;13.83;;;10.90;;
23163;SDS011;31429;42.674;23.350;2022-07-29T05:47:32;14.17;;;11.10;;
23163;SDS011;31429;42.674;23.350;2022-07-29T05:48:32;11.27;;;10.17;;
23163;SDS011;31429;42.674;23.350;2022-07-29T05:49:34;12.83;;;9.90;;
23163;SDS011;31429;42.674;23.350;2022-07-29T05:50:35;12.77;;;9.97;;
23163;SDS011;31429;42.674;23.350;2022-07-29T05:51:36;11.33;;;9.33;;
23163;SDS011;31429;42.674;23.350;2022-07-29T05:52:36;13.13;;;10.07;;
23163;SDS011;31429;42.674;23.350;2022-07-29T05:53:37;10.40;;;9.30;;
23163;SDS011;31429;42.674;23.350;2022-07-29T05:54:38;10.27;;;9.27;;
23163;SDS011;31429;42.674;23.350;2022-07-29T05:55:39;10.90;;;9.60;;
23163;SDS011;31429;42.674;23.350;2022-07-29T05:56:39;11.83;;;9.63;;
23163;SDS011;31429;42.674;23.350;2022-07-29T05:57:40;13.90;;;10.13;;
23163;SDS011;31429;42.674;23.350;2022-07-29T05:58:41;12.10;;;9.70;;
23163;SDS011;31429;42.674;23.350;2022-07-29T05:59:41;11.87;;;10.63;;
23163;SDS011;31429;42.674;23.350;2022-07-29T06:00:42;10.93;;;9.83;;
23163;SDS011;31429;42.674;23.350;2022-07-29T06:01:43;12.43;;;9.93;;
23163;SDS011;31429;42.674;23.350;2022-07-29T06:02:44;13.20;;;10.27;;
23163;SDS011;31429;42.674;23.350;2022-07-29T06:03:44;12.57;;;10.80;;
23163;SDS011;31429;42.674;23.350;2022-07-29T06:04:46;10.53;;;9.50;;
23163;SDS011;31429;42.674;23.350;2022-07-29T06:05:47;10.47;;;9.37;;
23163;SDS011;31429;42.674;23.350;2022-07-29T06:06:48;13.13;;;8.90;;
23163;SDS011;31429;42.674;23.350;2022-07-29T06:07:48;10.60;;;8.83;;
23163;SDS011;31429;42.674;23.350;2022-07-29T06:08:49;10.33;;;8.77;;
23163;SDS011;31429;42.674;23.350;2022-07-29T06:09:50;8.87;;;8.07;;
23163;SDS011;31429;42.674;23.350;2022-07-29T06:10:50;13.47;;;9.80;;
23163;SDS011;31429;42.674;23.350;2022-07-29T06:11:51;12.70;;;8.80;;
23163;SDS011;31429;42.674;23.350;2022-07-29T06:12:52;15.57;;;8.80;;
23163;SDS011;31429;42.674;23.350;2022-07-29T06:13:53;9.77;;;8.83;;
23163;SDS011;31429;42.674;23.350;2022-07-29T06:14:54;10.27;;;8.87;;
23163;SDS011;31429;42.674;23.350;2022-07-29T06:15:54;11.73;;;8.47;;
23163;SDS011;31429;42.674;23.350;2022-07-29T06:16:55;11.25;;;8.13;;
23163;SDS011;31429;42.674;23.350;2022-07-29T06:17:56;13.93;;;8.93;;
23163;SDS011;31429;42.674;23.350;2022-07-29T06:18:57;12.68;;;8.80;;
23163;SDS011;31429;42.674;23.350;2022-07-29T06:19:59;9.63;;;8.32;;
23163;SDS011;31429;42.674;23.350;2022-07-29T06:21:00;9.90;;;8.90;;
23163;SDS011;31429;42.674;23.350;2022-07-29T06:22:01;10.38;;;8.82;;
23163;SDS011;31429;42.674;23.350;2022-07-29T06:23:02;9.60;;;8.65;;
23163;SDS011;31429;42.674;23.350;2022-07-29T06:24:04;10.48;;;8.07;;
23163;SDS011;31429;42.674;23.350;2022-07-29T06:25:07;8.70;;;7.93;;
23163;SDS011;31429;42.674;23.350;2022-07-29T06:26:08;9.15;;;8.27;;
23163;SDS011;31429;42.674;23.350;2022-07-29T06:27:09;9.23;;;8.30;;
23163;SDS011;31429;42.674;23.350;2022-07-29T06:28:09;10.80;;;8.70;;
23163;SDS011;31429;42.674;23.350;2022-07-29T06:29:10;10.00;;;8.40;;
23163;SDS011;31429;42.674;23.350;2022-07-29T06:30:11;8.93;;;8.10;;
23163;SDS011;31429;42.674;23.350;2022-07-29T06:31:12;12.40;;;8.20;;
23163;SDS011;31429;42.674;23.350;2022-07-29T06:32:13;9.15;;;8.25;;
23163;SDS011;31429;42.674;23.350;2022-07-29T06:33:17;13.20;;;7.93;;
23163;SDS011;31429;42.674;23.350;2022-07-29T06:34:18;9.98;;;7.90;;
23163;SDS011;31429;42.674;23.350;2022-07-29T06:35:20;9.35;;;8.27;;
23163;SDS011;31429;42.674;23.350;2022-07-29T06:36:21;11.43;;;8.32;;
23163;SDS011;31429;42.674;23.350;2022-07-29T06:37:22;12.80;;;8.07;;
23163;SDS011;31429;42.674;23.350;2022-07-29T06:38:23;8.98;;;8.13;;
23163;SDS011;31429;42.674;23.350;2022-07-29T06:39:23;13.85;;;8.70;;
23163;SDS011;31429;42.674;23.350;2022-07-29T06:40:24;9.60;;;8.68;;
23163;SDS011;31429;42.674;23.350;2022-07-29T06:41:46;11.52;;;8.85;;
23163;SDS011;31429;42.674;23.350;2022-07-29T06:42:47;9.35;;;8.50;;
23163;SDS011;31429;42.674;23.350;2022-07-29T06:43:48;9.43;;;8.63;;
23163;SDS011;31429;42.674;23.350;2022-07-29T06:44:49;11.18;;;8.75;;
23163;SDS011;31429;42.674;23.350;2022-07-29T06:45:50;9.63;;;8.65;;
23163;SDS011;31429;42.674;23.350;2022-07-29T06:46:50;9.13;;;7.88;;
23163;SDS011;31429;42.674;23.350;2022-07-29T06:47:51;9.13;;;8.23;;
23163;SDS011;31429;42.674;23.350;2022-07-29T06:48:52;9.55;;;8.00;;
23163;SDS011;31429;42.674;23.350;2022-07-29T06:49:53;8.75;;;7.93;;
23163;SDS011;31429;42.674;23.350;2022-07-29T06:50:55;9.75;;;7.75;;
23163;SDS011;31429;42.674;23.350;2022-07-29T06:51:56;9.80;;;7.97;;
23163;SDS011;31429;42.674;23.350;2022-07-29T06:52:57;8.98;;;8.07;;
23163;SDS011;31429;42.674;23.350;2022-07-29T06:53:57;10.60;;;8.27;;
23163;SDS011;31429;42.674;23.350;2022-07-29T06:54:58;9.40;;;8.50;;
23163;SDS011;31429;42.674;23.350;2022-07-29T06:56:00;12.85;;;8.25;;
23163;SDS011;31429;42.674;23.350;2022-07-29T06:57:01;7.63;;;6.85;;
23163;SDS011;31429;42.674;23.350;2022-07-29T06:58:01;8.65;;;7.80;;
23163;SDS011;31429;42.674;23.350;2022-07-29T06:59:02;10.10;;;7.72;;
23163;SDS011;31429;42.674;23.350;2022-07-29T07:00:03;8.68;;;7.65;;
23163;SDS011;31429;42.674;23.350;2022-07-29T07:01:05;10.48;;;7.50;;
23163;SDS011;31429;42.674;23.350;2022-07-29T07:02:06;7.85;;;7.03;;
23163;SDS011;31429;42.674;23.350;2022-07-29T07:03:07;7.22;;;6.57;;
23163;SDS011;31429;42.674;23.350;2022-07-29T07:04:08;9.00;;;6.90;;
23163;SDS011;31429;42.674;23.350;2022-07-29T07:05:09;9.48;;;7.72;;
23163;SDS011;31429;42.674;23.350;2022-07-29T07:06:11;10.07;;;7.20;;
23163;SDS011;31429;42.674;23.350;2022-07-29T07:07:12;8.50;;;7.68;;
23163;SDS011;31429;42.674;23.350;2022-07-29T07:08:13;9.88;;;7.47;;
23163;SDS011;31429;42.674;23.350;2022-07-29T07:09:14;9.23;;;7.15;;
23163;SDS011;31429;42.674;23.350;2022-07-29T07:10:15;8.15;;;7.38;;
23163;SDS011;31429;42.674;23.350;2022-07-29T07:11:15;7.80;;;7.10;;
23163;SDS011;31429;42.674;23.350;2022-07-29T07:12:16;9.25;;;7.35;;
23163;SDS011;31429;42.674;23.350;2022-07-29T07:13:17;9.50;;;6.80;;
23163;SDS011;31429;42.674;23.350;2022-07-29T07:14:17;10.85;;;7.35;;
23163;SDS011;31429;42.674;23.350;2022-07-29T07:15:18;10.60;;;7.45;;
23163;SDS011;31429;42.674;23.350;2022-07-29T07:16:21;7.00;;;6.30;;
23163;SDS011;31429;42.674;23.350;2022-07-29T07:17:22;8.90;;;7.35;;
23163;SDS011;31429;42.674;23.350;2022-07-29T07:18:23;9.18;;;7.03;;
23163;SDS011;31429;42.674;23.350;2022-07-29T07:19:23;9.85;;;7.18;;
23163;SDS011;31429;42.674;23.350;2022-07-29T07:20:24;7.85;;;7.03;;
23163;SDS011;31429;42.674;23.350;2022-07-29T07:21:26;7.85;;;6.90;;
23163;SDS011;31429;42.674;23.350;2022-07-29T07:22:27;9.73;;;6.53;;
23163;SDS011;31429;42.674;23.350;2022-07-29T07:23:28;7.28;;;6.57;;
23163;SDS011;31429;42.674;23.350;2022-07-29T07:24:29;7.47;;;6.78;;
23163;SDS011;31429;42.674;23.350;2022-07-29T07:25:30;10.55;;;6.50;;
23163;SDS011;31429;42.674;23.350;2022-07-29T07:26:30;6.43;;;5.88;;
23163;SDS011;31429;42.674;23.350;2022-07-29T07:27:32;8.98;;;6.55;;
23163;SDS011;31429;42.674;23.350;2022-07-29T07:28:33;7.43;;;6.72;;
23163;SDS011;31429;42.674;23.350;2022-07-29T07:29:33;8.23;;;5.45;;
23163;SDS011;31429;42.674;23.350;2022-07-29T07:30:34;8.18;;;6.38;;
23163;SDS011;31429;42.674;23.350;2022-07-29T07:31:36;7.10;;;6.40;;
23163;SDS011;31429;42.674;23.350;2022-07-29T07:32:36;6.38;;;5.78;;
23163;SDS011;31429;42.674;23.350;2022-07-29T07:33:37;5.82;;;5.32;;
23163;SDS011;31429;42.674;23.350;2022-07-29T07:34:38;6.57;;;5.85;;
23163;SDS011;31429;42.674;23.350;2022-07-29T07:35:38;6.50;;;5.50;;
23163;SDS011;31429;42.674;23.350;2022-07-29T07:36:40;7.15;;;5.78;;
23163;SDS011;31429;42.674;23.350;2022-07-29T07:37:41;5.88;;;5.38;;
23163;SDS011;31429;42.674;23.350;2022-07-29T07:38:42;6.35;;;5.80;;
23163;SDS011;31429;42.674;23.350;2022-07-29T07:39:43;6.63;;;5.95;;
23163;SDS011;31429;42.674;23.350;2022-07-29T07:40:43;7.82;;;5.88;;
23163;SDS011;31429;42.674;23.350;2022-07-29T07:41:46;9.63;;;6.18;;
23163;SDS011;31429;42.674;23.350;2022-07-29T07:42:47;6.60;;;6.00;;
23163;SDS011;31429;42.674;23.350;2022-07-29T07:43:47;7.05;;;6.35;;
23163;SDS011;31429;42.674;23.350;2022-07-29T07:44:48;6.15;;;5.65;;
23163;SDS011;31429;42.674;23.350;2022-07-29T07:45:49;6.47;;;5.88;;
23163;SDS011;31429;42.674;23.350;2022-07-29T07:46:50;6.45;;;5.85;;
23163;SDS011;31429;42.674;23.350;2022-07-29T07:47:50;6.45;;;5.72;;
23163;SDS011;31429;42.674;23.350;2022-07-29T07:48:51;8.02;;;6.50;;
23163;SDS011;31429;42.674;23.350;2022-07-29T07:49:52;6.00;;;5.40;;
23163;SDS011;31429;42.674;23.350;2022-07-29T07:50:53;5.95;;;5.50;;
23163;SDS011;31429;42.674;23.350;2022-07-29T07:51:55;7.28;;;6.15;;
23163;SDS011;31429;42.674;23.350;2022-07-29T07:52:56;6.97;;;6.10;;
23163;SDS011;31429;42.674;23.350;2022-07-29T07:53:57;6.90;;;6.05;;
23163;SDS011;31429;42.674;23.350;2022-07-29T07:54:58;7.72;;;5.70;;
23163;SDS011;31429;42.674;23.350;2022-07-29T07:55:59;7.07;;;6.38;;
23163;SDS011;31429;42.674;23.350;2022-07-29T07:57:00;8.13;;;5.53;;
23163;SDS011;31429;42.674;23.350;2022-07-29T07:58:01;6.97;;;5.38;;
23163;SDS011;31429;42.674;23.350;2022-07-29T07:59:01;7.60;;;5.25;;
23163;SDS011;31429;42.674;23.350;2022-07-29T08:00:03;6.45;;;5.65;;
23163;SDS011;31429;42.674;23.350;2022-07-29T08:01:05;8.65;;;5.13;;
23163;SDS011;31429;42.674;23.350;2022-07-29T08:02:05;5.32;;;4.93;;
23163;SDS011;31429;42.674;23.350;2022-07-29T08:03:06;6.45;;;5.93;;
23163;SDS011;31429;42.674;23.350;2022-07-29T08:04:08;6.82;;;5.40;;
23163;SDS011;31429;42.674;23.350;2022-07-29T08:05:09;6.00;;;5.38;;
23163;SDS011;31429;42.674;23.350;2022-07-29T08:06:11;6.72;;;5.57;;
23163;SDS011;31429;42.674;23.350;2022-07-29T08:07:13;7.93;;;5.40;;
23163;SDS011;31429;42.674;23.350;2022-07-29T08:08:14;7.38;;;5.80;;
23163;SDS011;31429;42.674;23.350;2022-07-29T08:09:15;6.63;;;6.03;;
23163;SDS011;31429;42.674;23.350;2022-07-29T08:10:17;9.93;;;5.57;;
23163;SDS011;31429;42.674;23.350;2022-07-29T08:11:39;7.97;;;5.18;;
23163;SDS011;31429;42.674;23.350;2022-07-29T08:12:39;9.75;;;5.90;;
23163;SDS011;31429;42.674;23.350;2022-07-29T08:13:40;8.68;;;5.70;;
23163;SDS011;31429;42.674;23.350;2022-07-29T08:14:41;6.57;;;5.55;;
23163;SDS011;31429;42.674;23.350;2022-07-29T08:15:41;5.65;;;4.70;;
23163;SDS011;31429;42.674;23.350;2022-07-29T08:16:43;8.65;;;4.90;;
23163;SDS011;31429;42.674;23.350;2022-07-29T08:17:44;5.85;;;5.35;;
23163;SDS011;31429;42.674;23.350;2022-07-29T08:18:45;7.25;;;5.03;;
23163;SDS011;31429;42.674;23.350;2022-07-29T08:19:46;5.63;;;5.03;;
23163;SDS011;31429;42.674;23.350;2022-07-29T08:20:48;6.03;;;5.53;;
23163;SDS011;31429;42.674;23.350;2022-07-29T08:21:49;8.35;;;5.57;;
23163;SDS011;31429;42.674;23.350;2022-07-29T08:22:51;9.60;;;4.78;;
23163;SDS011;31429;42.674;23.350;2022-07-29T08:23:52;5.75;;;5.18;;
23163;SDS011;31429;42.674;23.350;2022-07-29T08:24:53;7.65;;;5.28;;
23163;SDS011;31429;42.674;23.350;2022-07-29T08:25:55;6.18;;;5.35;;
23163;SDS011;31429;42.674;23.350;2022-07-29T08:26:56;7.38;;;4.78;;
23163;SDS011;31429;42.674;23.350;2022-07-29T08:27:57;5.68;;;4.60;;
23163;SDS011;31429;42.674;23.350;2022-07-29T08:28:57;5.30;;;4.65;;
23163;SDS011;31429;42.674;23.350;2022-07-29T08:29:58;8.80;;;5.18;;
23163;SDS011;31429;42.674;23.350;2022-07-29T08:30:59;7.55;;;5.07;;
23163;SDS011;31429;42.674;23.350;2022-07-29T08:31:59;5.88;;;5.28;;
23163;SDS011;31429;42.674;23.350;2022-07-29T08:33:00;5.00;;;4.60;;
23163;SDS011;31429;42.674;23.350;2022-07-29T08:34:01;4.90;;;4.47;;
23163;SDS011;31429;42.674;23.350;2022-07-29T08:35:02;5.80;;;5.15;;
23163;SDS011;31429;42.674;23.350;2022-07-29T08:36:04;6.32;;;4.53;;
23163;SDS011;31429;42.674;23.350;2022-07-29T08:37:05;5.40;;;4.88;;
23163;SDS011;31429;42.674;23.350;2022-07-29T08:38:07;5.40;;;4.40;;
23163;SDS011;31429;42.674;23.350;2022-07-29T08:39:08;9.15;;;8.00;;
23163;SDS011;31429;42.674;23.350;2022-07-29T08:40:09;14.88;;;12.70;;
23163;SDS011;31429;42.674;23.350;2022-07-29T08:41:10;9.18;;;8.23;;
23163;SDS011;31429;42.674;23.350;2022-07-29T08:42:11;27.77;;;24.77;;
23163;SDS011;31429;42.674;23.350;2022-07-29T08:43:12;8.60;;;6.65;;
23163;SDS011;31429;42.674;23.350;2022-07-29T08:44:13;8.88;;;5.82;;
23163;SDS011;31429;42.674;23.350;2022-07-29T08:45:15;18.65;;;15.63;;
23163;SDS011;31429;42.674;23.350;2022-07-29T08:46:16;21.73;;;15.88;;
23163;SDS011;31429;42.674;23.350;2022-07-29T08:47:17;11.00;;;5.47;;
23163;SDS011;31429;42.674;23.350;2022-07-29T08:48:19;21.48;;;18.05;;
23163;SDS011;31429;42.674;23.350;2022-07-29T08:49:20;10.02;;;7.93;;
23163;SDS011;31429;42.674;23.350;2022-07-29T08:50:21;5.72;;;5.22;;
23163;SDS011;31429;42.674;23.350;2022-07-29T08:51:21;5.10;;;4.18;;
23163;SDS011;31429;42.674;23.350;2022-07-29T08:52:25;6.82;;;6.13;;
23163;SDS011;31429;42.674;23.350;2022-07-29T08:53:28;5.65;;;4.97;;
23163;SDS011;31429;42.674;23.350;2022-07-29T08:54:29;11.35;;;6.93;;
23163;SDS011;31429;42.674;23.350;2022-07-29T08:55:30;6.50;;;5.20;;
23163;SDS011;31429;42.674;23.350;2022-07-29T08:56:31;4.80;;;4.38;;
23163;SDS011;31429;42.674;23.350;2022-07-29T08:57:33;5.53;;;4.93;;
23163;SDS011;31429;42.674;23.350;2022-07-29T08:58:34;6.15;;;4.65;;
23163;SDS011;31429;42.674;23.350;2022-07-29T08:59:35;5.10;;;4.68;;